Time;durP1;ratioP1;P1;durP2;ratioP2;P2;SDS_P1;SDS_P2;PMS_P1;PMS_P2;Temp;Humidity;BMP_temperature;BMP_pressure;BME280_temperature;BME280_humidity;BME280_pressure;Samples;Min_cycle;Max_cycle;Signal;HPM_P1;HPM_P2
2024/03/21 00:00:26;;;;;;;86.30;44.30;;;;;;;1.98;84.56;99468.13;272505;1270;22562;-88
2024/03/21 00:06:47;;;;;;;88.10;44.70;;;;;;;1.87;84.70;99466.89;272607;1270;22254;-88
2024/03/21 00:12:50;;;;;;;96.10;47.00;;;;;;;1.75;85.00;99463.38;272518;1270;22408;-88
2024/03/21 00:18:52;;;;;;;98.30;50.20;;;;;;;1.62;85.45;99458.42;272570;1270;22610;-88
2024/03/21 00:24:56;;;;;;;95.60;49.30;;;;;;;1.50;85.92;99453.23;272691;1270;23099;-89
2024/03/21 00:30:58;;;;;;;90.40;43.20;;;;;;;1.42;86.35;99452.65;272168;1270;22262;-88
2024/03/21 00:36:59;;;;;;;79.10;41.60;;;;;;;1.39;86.82;99448.95;272432;1270;22344;-88
2024/03/21 00:43:01;;;;;;;69.40;36.70;;;;;;;1.32;86.86;99445.42;270973;1270;180934;-88
2024/03/21 00:49:07;;;;;;;81.00;40.10;;;;;;;1.22;86.97;99446.63;270569;1270;22568;-87
2024/03/21 00:55:10;;;;;;;;;;;;;;;1.15;87.37;99444.66;271363;1270;23062;-87
2024/03/21 01:01:12;;;;;;;86.60;41.90;;;;;;;1.06;87.57;99437.70;272554;1270;22461;-87
2024/03/21 01:07:20;;;;;;;83.20;42.70;;;;;;;0.89;87.44;99432.98;272655;1256;22319;-89
2024/03/21 01:13:22;;;;;;;95.80;47.90;;;;;;;0.74;87.69;99425.00;272563;1270;23462;-88
2024/03/21 01:19:26;;;;;;;93.10;45.70;;;;;;;0.60;88.07;99418.54;272624;1270;23061;-88
2024/03/21 01:25:28;;;;;;;79.40;38.40;;;;;;;0.52;88.71;99416.92;272732;1270;23465;-88
2024/03/21 01:31:35;;;;;;;95.60;45.80;;;;;;;0.46;88.89;99416.77;272762;1270;23231;-89
2024/03/21 01:37:37;;;;;;;99.70;48.00;;;;;;;0.37;88.93;99410.32;272402;1270;22277;-87
2024/03/21 01:43:39;;;;;;;86.90;45.30;;;;;;;0.25;89.11;99404.73;272568;1270;22399;-88
2024/03/21 01:49:41;;;;;;;95.70;47.90;;;;;;;0.14;89.43;99402.99;272567;1270;22285;-89
2024/03/21 01:55:44;;;;;;;92.50;47.00;;;;;;;0.11;89.69;99407.61;272492;1270;22270;-87
2024/03/21 02:01:56;;;;;;;77.30;39.80;;;;;;;0.07;90.14;99408.06;272415;1259;115278;-90
2024/03/21 02:07:59;;;;;;;85.00;45.20;;;;;;;-0.02;90.13;99408.77;272301;1270;22420;-87
2024/03/21 02:14:00;;;;;;;81.80;41.40;;;;;;;-0.08;90.12;99410.34;272780;1269;24136;-87
2024/03/21 02:20:03;;;;;;;90.40;46.00;;;;;;;-0.16;90.41;99404.55;272740;1270;22562;-89
2024/03/21 02:26:05;;;;;;;96.70;48.00;;;;;;;-0.19;90.80;99403.23;272602;1270;22412;-88
2024/03/21 02:32:08;;;;;;;106.70;51.60;;;;;;;-0.25;90.99;99406.04;272575;1270;22322;-88
2024/03/21 02:38:09;;;;;;;96.90;46.40;;;;;;;-0.31;91.47;99410.44;271746;1270;22554;-88
2024/03/21 02:44:11;;;;;;;105.20;51.90;;;;;;;-0.35;91.76;99412.07;269710;1270;22592;-89
2024/03/21 02:50:14;;;;;;;105.80;53.00;;;;;;;-0.39;91.89;99411.55;269239;1270;23543;-88
2024/03/21 02:56:16;;;;;;;115.60;54.30;;;;;;;-0.46;92.14;99409.44;270179;1269;22405;-88
2024/03/21 03:02:19;;;;;;;93.00;46.10;;;;;;;-0.52;92.56;99409.64;272288;1269;22443;-88
2024/03/21 03:08:21;;;;;;;99.00;49.20;;;;;;;-0.57;92.68;99407.90;272426;1270;23664;-87
2024/03/21 03:14:25;;;;;;;95.30;47.00;;;;;;;-0.62;93.09;99411.48;270886;1270;23869;-88
2024/03/21 03:20:27;;;;;;;102.20;48.30;;;;;;;-0.60;93.35;99411.55;269174;1254;22946;-89
2024/03/21 03:26:29;;;;;;;95.90;46.90;;;;;;;-0.58;93.79;99416.56;269725;1270;23694;-88
2024/03/21 03:32:33;;;;;;;98.60;49.80;;;;;;;-0.56;94.17;99413.68;269496;1269;22567;-90
2024/03/21 03:38:34;;;;;;;84.90;42.90;;;;;;;-0.52;94.61;99416.05;269773;1270;24364;-88
2024/03/21 03:44:37;;;;;;;89.00;45.50;;;;;;;-0.45;95.20;99419.59;271410;1270;22266;-88
2024/03/21 03:50:38;;;;;;;77.50;39.60;;;;;;;-0.41;95.11;99421.80;272615;1261;22526;-88
2024/03/21 03:56:40;;;;;;;85.00;40.80;;;;;;;-0.39;95.18;99419.98;272470;1269;22370;-88
2024/03/21 04:02:43;;;;;;;97.90;48.90;;;;;;;-0.38;95.21;99414.60;272257;1269;22389;-89
2024/03/21 04:08:46;;;;;;;94.60;47.50;;;;;;;-0.38;95.46;99415.30;272388;1270;24161;-89
2024/03/21 04:14:51;;;;;;;102.30;52.20;;;;;;;-0.36;95.61;99419.51;272576;1260;22745;-89
2024/03/21 04:20:54;;;;;;;94.70;47.10;;;;;;;-0.40;95.86;99424.35;272349;1270;22398;-88
2024/03/21 04:26:56;;;;;;;103.50;50.00;;;;;;;-0.39;96.33;99428.64;272582;1270;22382;-88
2024/03/21 04:32:58;;;;;;;92.80;45.00;;;;;;;-0.40;96.15;99429.79;272600;1270;22408;-88
2024/03/21 04:39:00;;;;;;;87.50;42.20;;;;;;;-0.40;96.53;99434.85;272581;1270;22401;-88
2024/03/21 04:45:02;;;;;;;107.50;50.60;;;;;;;-0.39;96.76;99437.95;272556;1270;23655;-87
2024/03/21 04:51:07;;;;;;;88.80;45.90;;;;;;;-0.40;96.67;99443.52;272740;1270;22914;-88
2024/03/21 04:57:09;;;;;;;96.40;48.10;;;;;;;-0.42;96.79;99443.06;271116;1270;22370;-88
2024/03/21 05:03:13;;;;;;;93.50;47.20;;;;;;;-0.43;96.78;99448.50;272177;1270;22356;-88
2024/03/21 05:09:15;;;;;;;108.50;50.80;;;;;;;-0.47;96.82;99449.70;272595;1261;22513;-87
2024/03/21 05:15:18;;;;;;;116.40;54.50;;;;;;;-0.48;97.08;99457.72;272391;1270;22496;-87
2024/03/21 05:21:20;;;;;;;114.40;55.70;;;;;;;-0.44;97.30;99463.53;272184;1270;22427;-88
2024/03/21 05:27:24;;;;;;;117.20;54.40;;;;;;;-0.35;97.56;99461.01;272049;1271;22589;-87
2024/03/21 05:33:26;;;;;;;107.00;52.80;;;;;;;-0.18;97.37;99454.88;271444;1270;24383;-87
2024/03/21 05:39:28;;;;;;;113.70;55.10;;;;;;;0.03;97.84;99462.36;269622;1270;22615;-87
2024/03/21 05:45:30;;;;;;;103.80;52.10;;;;;;;0.12;98.18;99467.09;270729;1270;22400;-87
2024/03/21 05:51:36;;;;;;;112.20;55.30;;;;;;;0.22;98.81;99468.17;272568;1270;22403;-87
2024/03/21 05:57:38;;;;;;;112.70;54.10;;;;;;;0.41;99.52;99465.73;271300;1270;23946;-88
2024/03/21 06:03:41;;;;;;;116.70;57.10;;;;;;;0.90;100.00;99473.79;272234;1269;23699;-89
2024/03/21 06:09:43;;;;;;;124.50;62.30;;;;;;;1.53;100.00;99471.19;272382;1269;22425;-88
2024/03/21 06:15:47;;;;;;;124.60;63.10;;;;;;;2.03;100.00;99463.42;271904;1270;22689;-89
2024/03/21 06:21:51;;;;;;;134.70;67.70;;;;;;;2.52;100.00;99459.77;269962;1270;22596;-90
2024/03/21 06:27:53;;;;;;;158.80;79.30;;;;;;;2.99;100.00;99463.71;272411;1270;22387;-90
2024/03/21 06:33:55;;;;;;;139.50;72.30;;;;;;;3.38;99.98;99465.59;272261;1269;22259;-89
2024/03/21 06:39:58;;;;;;;119.60;64.60;;;;;;;3.76;99.62;99467.46;272294;1270;22499;-89
2024/03/21 06:46:00;;;;;;;119.70;62.50;;;;;;;4.06;99.31;99471.02;272391;1270;22551;-89
2024/03/21 06:52:02;;;;;;;111.80;57.70;;;;;;;4.42;99.16;99463.91;272484;1270;22293;-89
2024/03/21 06:58:04;;;;;;;108.90;58.50;;;;;;;4.90;99.74;99463.30;272565;1270;22267;-90
2024/03/21 07:04:08;;;;;;;108.90;58.30;;;;;;;5.45;98.73;99459.17;272381;1270;22998;-89
2024/03/21 07:10:10;;;;;;;102.40;53.90;;;;;;;5.80;97.14;99464.73;272075;1270;22774;-88
2024/03/21 07:16:16;;;;;;;91.80;51.10;;;;;;;6.08;96.53;99460.41;271155;1270;23738;-88
2024/03/21 07:22:18;;;;;;;93.80;51.40;;;;;;;6.32;95.70;99462.05;270077;1261;24862;-88
2024/03/21 07:28:21;;;;;;;97.60;51.00;;;;;;;6.54;94.75;99460.92;272392;1271;23156;-89
2024/03/21 07:34:24;;;;;;;84.30;46.30;;;;;;;6.78;94.20;99458.89;272505;1271;22274;-89
2024/03/21 07:40:26;;;;;;;83.90;47.40;;;;;;;6.97;93.36;99461.77;271918;1270;23436;-90
2024/03/21 07:46:36;;;;;;;79.20;43.10;;;;;;;7.17;92.81;99466.46;270211;1272;22692;-89
2024/03/21 07:53:32;;;;;;;77.00;41.40;;;;;;;7.46;91.75;99462.78;271725;1270;22426;-90
2024/03/21 08:00:05;;;;;;;78.20;43.40;;;;;;;7.77;91.39;99464.21;272638;1270;23098;-90
2024/03/21 08:06:40;;;;;;;;;;;;;;;;;;;;;
2024/03/21 08:13:22;;;;;;;68.60;39.10;;;;;;;8.15;89.99;99462.18;272455;1270;22397;-90
2024/03/21 08:20:00;;;;;;;;;;;;;;;;;;;;;
2024/03/21 08:26:16;;;;;;;65.30;36.90;;;;;;;8.66;88.19;99458.75;272553;1270;22401;-90
2024/03/21 08:32:21;;;;;;;61.90;35.90;;;;;;;9.12;87.70;99456.47;270636;1270;24231;-89
2024/03/21 08:38:25;;;;;;;64.00;35.50;;;;;;;9.71;86.11;99457.91;269461;1270;22554;-90
2024/03/21 08:44:27;;;;;;;56.40;34.60;;;;;;;10.03;83.97;99453.94;271726;1270;22306;-90
2024/03/21 08:50:29;;;;;;;56.70;32.70;;;;;;;10.40;81.92;99449.67;272522;1270;22308;-90
2024/03/21 08:56:31;;;;;;;50.90;30.00;;;;;;;10.97;80.51;99443.34;272168;1256;22448;-89
2024/03/21 09:02:33;;;;;;;47.30;29.20;;;;;;;11.70;78.62;99441.31;272584;1270;22621;-89
2024/03/21 09:08:36;;;;;;;51.90;30.80;;;;;;;12.19;76.25;99441.81;272457;1271;22452;-92
2024/03/21 09:14:37;;;;;;;53.30;30.70;;;;;;;12.50;75.49;99440.83;272572;1271;23226;-90
2024/03/21 09:20:45;;;;;;;45.10;29.00;;;;;;;12.77;75.84;99437.87;271993;1271;22573;-92
2024/03/21 09:26:47;;;;;;;55.00;32.50;;;;;;;13.01;71.21;99424.67;272514;1271;23554;-91
2024/03/21 09:32:49;;;;;;;49.70;30.80;;;;;;;13.20;69.96;99420.67;272396;1271;22304;-88
2024/03/21 09:38:53;;;;;;;45.80;28.60;;;;;;;13.41;70.97;99419.40;273063;1274;22242;-88
2024/03/21 09:44:59;;;;;;;50.60;29.00;;;;;;;13.91;69.51;99415.97;272482;1270;23412;-90
2024/03/21 09:51:01;;;;;;;49.00;28.30;;;;;;;14.66;67.36;99412.12;272432;1269;22472;-89
2024/03/21 09:57:06;;;;;;;47.40;28.70;;;;;;;14.85;65.38;99411.04;270071;1270;22535;-90
2024/03/21 10:03:22;;;;;;;50.70;29.90;;;;;;;15.23;63.97;99403.40;272014;1270;23849;-91
2024/03/21 10:09:32;;;;;;;49.10;30.00;;;;;;;14.78;60.97;99398.75;272366;1270;23628;-91
2024/03/21 10:15:36;;;;;;;48.00;29.60;;;;;;;14.93;61.52;99386.95;272460;1269;22217;-91
2024/03/21 10:21:41;;;;;;;46.60;29.70;;;;;;;14.91;59.03;99380.34;272566;1271;23769;-92
2024/03/21 10:27:46;;;;;;;45.40;27.90;;;;;;;14.81;58.27;99380.04;270268;1263;22402;-91
2024/03/21 10:33:53;;;;;;;47.90;29.50;;;;;;;14.89;54.56;99374.19;272290;1269;23137;-91
2024/03/21 10:39:55;;;;;;;48.10;29.80;;;;;;;14.84;53.53;99373.34;269977;1269;22937;-92
2024/03/21 10:46:00;;;;;;;44.00;27.90;;;;;;;15.43;53.68;99374.52;270198;1271;24358;-91
2024/03/21 10:52:07;;;;;;;38.50;26.00;;;;;;;15.98;53.76;99371.91;272468;1270;22254;-91
2024/03/21 10:58:15;;;;;;;35.90;22.80;;;;;;;16.63;54.03;99363.10;272474;1271;23349;-88
2024/03/21 11:04:17;;;;;;;38.20;22.60;;;;;;;17.03;51.39;99357.17;272395;1272;22412;-91
2024/03/21 11:10:24;;;;;;;32.50;20.70;;;;;;;17.36;47.99;99352.74;272553;1263;22251;-92
2024/03/21 11:16:27;;;;;;;34.70;22.20;;;;;;;17.62;48.01;99345.59;272440;1271;22447;-90
2024/03/21 11:22:29;;;;;;;30.20;19.00;;;;;;;17.92;48.93;99342.05;272233;1270;23032;-91
2024/03/21 11:28:32;;;;;;;31.20;20.70;;;;;;;18.26;45.69;99337.71;272285;1271;22420;-92
2024/03/21 11:34:37;;;;;;;34.30;20.50;;;;;;;18.21;44.38;99331.37;272214;1270;23876;-92
2024/03/21 11:40:39;;;;;;;30.80;21.50;;;;;;;18.17;43.36;99325.41;272497;1270;22414;-92
2024/03/21 11:46:43;;;;;;;30.50;20.50;;;;;;;17.66;42.37;99326.70;272480;1270;22285;-92
2024/03/21 11:52:49;;;;;;;32.10;19.60;;;;;;;17.53;42.66;99328.70;272412;1270;23915;-91
2024/03/21 11:58:53;;;;;;;25.40;16.20;;;;;;;17.65;42.46;99323.02;272331;1270;22617;-92
2024/03/21 12:04:57;;;;;;;22.50;15.30;;;;;;;17.58;41.09;99316.61;272085;1270;22988;-91
2024/03/21 12:10:59;;;;;;;27.70;17.30;;;;;;;17.18;39.96;99309.84;272503;1270;23096;-92
2024/03/21 12:17:06;;;;;;;29.20;17.40;;;;;;;17.02;40.62;99304.08;272469;1270;23054;-93
2024/03/21 12:23:08;;;;;;;24.90;16.10;;;;;;;16.95;40.60;99299.16;271690;1270;23798;-91
2024/03/21 12:29:10;;;;;;;21.90;12.50;;;;;;;16.85;39.32;99291.67;272285;1270;22495;-91
2024/03/21 12:35:22;;;;;;;24.30;13.90;;;;;;;16.77;37.85;99290.66;272474;1270;24089;-91
2024/03/21 12:41:27;;;;;;;19.50;11.50;;;;;;;16.41;36.12;99282.80;272052;1270;301533;-91
2024/03/21 12:47:31;;;;;;;19.60;12.20;;;;;;;16.09;35.30;99271.42;271575;1270;22276;-90
2024/03/21 12:53:33;;;;;;;19.80;12.70;;;;;;;15.81;34.76;99267.64;272702;1270;23537;-90
2024/03/21 12:59:37;;;;;;;18.60;11.10;;;;;;;15.71;35.27;99264.77;271212;1270;22519;-90
2024/03/21 13:05:44;;;;;;;20.30;12.10;;;;;;;15.93;34.30;99252.43;269926;1270;22559;-90
2024/03/21 13:11:51;;;;;;;;;;;;;;;15.97;34.23;99240.26;270181;1269;22514;-92
2024/03/21 13:17:53;;;;;;;20.30;12.00;;;;;;;16.15;34.82;99237.69;272399;1270;22439;-91
2024/03/21 13:23:56;;;;;;;21.10;13.00;;;;;;;16.23;34.29;99234.30;272552;1267;22262;-91
2024/03/21 13:30:03;;;;;;;20.90;13.70;;;;;;;16.15;33.73;99236.73;272262;1264;22506;-91
2024/03/21 13:36:08;;;;;;;21.90;14.40;;;;;;;16.09;34.05;99232.59;271180;1270;22440;-91
2024/03/21 13:42:17;;;;;;;23.80;15.20;;;;;;;15.84;33.98;99225.97;272131;1269;22429;-91
2024/03/21 13:48:37;;;;;;;22.60;13.10;;;;;;;15.62;33.64;99223.05;272313;1270;22288;-91
2024/03/21 13:54:42;;;;;;;22.00;12.50;;;;;;;15.54;33.55;99219.70;272269;1270;23439;-92
2024/03/21 14:00:59;;;;;;;19.40;11.30;;;;;;;15.62;33.23;99210.76;272430;1270;22492;-93
2024/03/21 14:07:09;;;;;;;18.50;11.40;;;;;;;15.83;33.19;99206.83;272516;1270;22408;-92
2024/03/21 14:13:14;;;;;;;22.10;12.90;;;;;;;15.93;33.07;99205.66;272244;1270;22478;-92
2024/03/21 14:19:23;;;;;;;23.80;13.30;;;;;;;15.80;32.93;99203.77;273009;1270;22494;-91
2024/03/21 14:25:28;;;;;;;25.00;14.10;;;;;;;15.59;33.37;99198.54;272430;1270;23424;-92
2024/03/21 14:31:32;;;;;;;28.60;16.50;;;;;;;15.72;33.59;99190.19;272459;1269;22237;-90
2024/03/21 14:37:48;;;;;;;27.50;14.20;;;;;;;15.83;34.38;99188.94;272458;1266;22226;-92
2024/03/21 14:43:55;;;;;;;27.80;14.80;;;;;;;15.83;34.36;99185.55;272891;1271;22342;-92
2024/03/21 14:50:02;;;;;;;23.30;14.10;;;;;;;15.77;34.22;99177.22;272380;1270;22278;-91
2024/03/21 14:56:16;;;;;;;24.80;14.20;;;;;;;15.60;34.16;99170.70;272442;1270;24507;-92
2024/03/21 15:02:33;;;;;;;;;;;;;;;;;;;;;
2024/03/21 15:08:37;;;;;;;21.40;12.80;;;;;;;15.28;34.44;99173.54;271203;1270;23861;-91
2024/03/21 15:14:40;;;;;;;24.10;13.30;;;;;;;15.21;34.93;99170.89;271383;1270;22658;-91
2024/03/21 15:20:52;;;;;;;;;;;;;;;;;;;;;
2024/03/21 15:27:01;;;;;;;17.50;11.20;;;;;;;14.84;34.51;99173.16;269917;1261;23743;-91
2024/03/21 15:33:34;;;;;;;17.80;11.00;;;;;;;14.62;34.47;99171.33;271701;1264;22314;-92
2024/03/21 16:59:49;;;;;;;42.80;21.60;;;;;;;12.29;41.62;99190.95;271877;1271;22702;-91
2024/03/21 17:05:56;;;;;;;36.90;19.20;;;;;;;12.07;42.27;99190.55;272388;1269;22388;-92
2024/03/21 17:43:39;;;;;;;43.00;23.60;;;;;;;9.97;47.27;99200.46;270117;1270;22298;-91
2024/03/21 17:51:10;;;;;;;39.00;22.50;;;;;;;9.50;48.00;99203.63;269829;1281;22617;-91
2024/03/21 17:57:35;;;;;;;39.00;21.70;;;;;;;9.14;49.16;99217.67;271036;1286;22386;-90
2024/03/21 18:04:30;;;;;;;44.00;24.30;;;;;;;8.89;50.14;99232.44;271083;1289;22297;-91
2024/03/21 18:36:08;;;;;;;69.40;33.30;;;;;;;7.86;54.38;99234.89;270899;1278;22419;-91
2024/03/21 18:44:06;;;;;;;62.30;30.40;;;;;;;7.63;55.55;99236.08;272451;1271;22295;-91
2024/03/21 18:52:10;;;;;;;65.50;33.10;;;;;;;7.37;56.42;99235.98;271060;1291;22319;-91
2024/03/21 19:00:05;;;;;;;;;;;;;;;;;;;;;
2024/03/21 19:23:26;;;;;;;;;;;;;;;;;;;;;
2024/03/21 19:54:07;;;;;;;62.20;33.90;;;;;;;7.20;64.62;99266.02;272139;1286;23945;-90
2024/03/21 20:07:30;;;;;;;96.00;46.40;;;;;;;7.26;65.58;99277.45;271603;1274;23497;-91
2024/03/21 20:13:34;;;;;;;113.00;51.70;;;;;;;7.23;65.46;99276.60;271984;1275;23519;-90
2024/03/21 21:07:45;;;;;;;76.70;40.40;;;;;;;7.46;70.47;99278.81;269591;1292;22324;-90
2024/03/21 21:14:41;;;;;;;88.30;44.50;;;;;;;7.47;70.85;99290.13;270688;1289;22444;-91
2024/03/21 21:22:38;;;;;;;106.40;54.10;;;;;;;7.46;69.97;99296.02;272557;1278;22356;-90
2024/03/21 21:28:55;;;;;;;108.50;53.00;;;;;;;7.38;69.01;99295.88;272249;1276;22300;-90
2024/03/21 21:35:11;;;;;;;109.00;56.30;;;;;;;7.39;69.85;99282.35;272895;1271;22172;-90
2024/03/21 21:41:52;;;;;;;;;;;;;;;7.42;71.87;99280.79;272912;1270;22419;-90
2024/03/21 21:57:11;;;;;;;102.70;50.30;;;;;;;7.47;72.00;99277.36;271999;1287;22285;-90
2024/03/21 22:28:53;;;;;;;106.00;54.40;;;;;;;7.46;73.28;99252.84;272266;1275;22893;-91
2024/03/21 23:40:12;;;;;;;86.40;44.60;;;;;;;7.55;74.28;99265.67;271931;1285;22290;-90
2024/03/21 23:48:12;;;;;;;92.00;44.80;;;;;;;7.58;75.13;99266.95;271058;1292;22792;-91
